sensor_id;sensor_type;location;lat;lon;timestamp;pressure;altitude;pressure_sealevel;temperature;humidity
29371;BME280;16357;52.188;7.838;2023-01-29T00:01:17;102223.81;;;3.88;55.25
29371;BME280;16357;52.188;7.838;2023-01-29T00:03:43;102227.41;;;3.87;55.14
29371;BME280;16357;52.188;7.838;2023-01-29T00:06:09;102223.81;;;3.88;55.37
29371;BME280;16357;52.188;7.838;2023-01-29T00:08:37;102224.66;;;3.89;55.13
29371;BME280;16357;52.188;7.838;2023-01-29T00:11:06;102217.53;;;3.89;55.04
29371;BME280;16357;52.188;7.838;2023-01-29T00:13:33;102217.53;;;3.89;54.74
29371;BME280;16357;52.188;7.838;2023-01-29T00:16:00;102218.50;;;3.88;55.14
29371;BME280;16357;52.188;7.838;2023-01-29T00:18:27;102213.19;;;3.88;55.06
29371;BME280;16357;52.188;7.838;2023-01-29T00:20:54;102222.84;;;3.89;55.08
29371;BME280;16357;52.188;7.838;2023-01-29T00:23:22;102218.50;;;3.88;54.89
29371;BME280;16357;52.188;7.838;2023-01-29T00:25:48;102218.50;;;3.88;55.40
29371;BME280;16357;52.188;7.838;2023-01-29T00:28:15;102224.66;;;3.89;55.01
29371;BME280;16357;52.188;7.838;2023-01-29T00:30:41;102219.34;;;3.89;55.39
29371;BME280;16357;52.188;7.838;2023-01-29T00:33:07;102214.88;;;3.89;54.93
29371;BME280;16357;52.188;7.838;2023-01-29T00:35:34;102214.88;;;3.89;55.15
29371;BME280;16357;52.188;7.838;2023-01-29T00:38:00;102224.66;;;3.89;54.92
29371;BME280;16357;52.188;7.838;2023-01-29T00:40:26;102218.44;;;3.90;54.92
29371;BME280;16357;52.188;7.838;2023-01-29T00:42:53;102220.19;;;3.89;55.02
29371;BME280;16357;52.188;7.838;2023-01-29T00:45:38;102224.66;;;3.89;54.65
29371;BME280;16357;52.188;7.838;2023-01-29T00:48:05;102221.94;;;3.90;55.02
29371;BME280;16357;52.188;7.838;2023-01-29T00:50:31;102220.28;;;3.88;54.95
29371;BME280;16357;52.188;7.838;2023-01-29T00:52:57;102215.84;;;3.88;55.07
29371;BME280;16357;52.188;7.838;2023-01-29T00:55:24;102204.28;;;3.89;54.74
29371;BME280;16357;52.188;7.838;2023-01-29T00:57:50;102196.41;;;3.88;54.73
29371;BME280;16357;52.188;7.838;2023-01-29T01:00:17;102186.63;;;3.88;54.87
29371;BME280;16357;52.188;7.838;2023-01-29T01:02:44;102175.16;;;3.88;54.88
29371;BME280;16357;52.188;7.838;2023-01-29T01:05:29;102170.72;;;3.88;54.77
29371;BME280;16357;52.188;7.838;2023-01-29T01:07:56;102174.31;;;3.87;54.71
29371;BME280;16357;52.188;7.838;2023-01-29T01:10:31;102166.41;;;3.86;55.07
29371;BME280;16357;52.188;7.838;2023-01-29T01:13:03;102163.69;;;3.87;54.90
29371;BME280;16357;52.188;7.838;2023-01-29T01:15:34;102162.91;;;3.85;55.11
29371;BME280;16357;52.188;7.838;2023-01-29T01:18:01;102166.47;;;3.84;54.98
29371;BME280;16357;52.188;7.838;2023-01-29T01:20:29;102157.66;;;3.84;55.02
29371;BME280;16357;52.188;7.838;2023-01-29T01:22:56;102152.44;;;3.82;54.75
29371;BME280;16357;52.188;7.838;2023-01-29T01:25:25;102170.16;;;3.82;55.11
29371;BME280;16357;52.188;7.838;2023-01-29T01:27:52;102178.19;;;3.80;54.76
29371;BME280;16357;52.188;7.838;2023-01-29T01:30:19;102176.50;;;3.79;54.85
29371;BME280;16357;52.188;7.838;2023-01-29T01:32:46;102174.69;;;3.80;55.29
29371;BME280;16357;52.188;7.838;2023-01-29T01:35:12;102180.06;;;3.78;54.73
29371;BME280;16357;52.188;7.838;2023-01-29T01:37:40;102174.75;;;3.78;54.90
29371;BME280;16357;52.188;7.838;2023-01-29T01:40:17;102172.09;;;3.78;55.13
29371;BME280;16357;52.188;7.838;2023-01-29T01:42:50;102165.00;;;3.79;55.20
29371;BME280;16357;52.188;7.838;2023-01-29T01:45:22;102157.13;;;3.77;55.27
29371;BME280;16357;52.188;7.838;2023-01-29T01:47:53;102165.94;;;3.78;54.97
29371;BME280;16357;52.188;7.838;2023-01-29T01:50:38;102178.38;;;3.77;54.93
29371;BME280;16357;52.188;7.838;2023-01-29T01:53:12;102174.84;;;3.77;55.33
29371;BME280;16357;52.188;7.838;2023-01-29T01:55:51;102172.19;;;3.77;55.21
29371;BME280;16357;52.188;7.838;2023-01-29T01:58:24;102173.91;;;3.78;54.92
29371;BME280;16357;52.188;7.838;2023-01-29T02:00:52;102188.97;;;3.77;54.90
29371;BME280;16357;52.188;7.838;2023-01-29T02:03:20;102186.31;;;3.77;55.03
29371;BME280;16357;52.188;7.838;2023-01-29T02:06:06;102186.31;;;3.77;55.08
29371;BME280;16357;52.188;7.838;2023-01-29T02:09:01;102188.03;;;3.78;54.95
29371;BME280;16357;52.188;7.838;2023-01-29T02:11:47;102188.97;;;3.77;55.22
29371;BME280;16357;52.188;7.838;2023-01-29T02:14:13;102179.22;;;3.78;55.05
29371;BME280;16357;52.188;7.838;2023-01-29T02:16:39;102190.69;;;3.78;55.30
29371;BME280;16357;52.188;7.838;2023-01-29T02:19:37;102198.66;;;3.78;55.41
29371;BME280;16357;52.188;7.838;2023-01-29T02:22:11;102197.63;;;3.81;55.40
29371;BME280;16357;52.188;7.838;2023-01-29T02:30:28;102184.31;;;3.82;55.28
29371;BME280;16357;52.188;7.838;2023-01-29T02:38:49;102185.16;;;3.83;55.38
29371;BME280;16357;52.188;7.838;2023-01-29T02:41:25;102192.25;;;3.82;55.02
29371;BME280;16357;52.188;7.838;2023-01-29T02:46:51;102183.34;;;3.83;55.02
29371;BME280;16357;52.188;7.838;2023-01-29T02:49:49;102193.19;;;3.81;55.22
29371;BME280;16357;52.188;7.838;2023-01-29T02:52:21;102192.25;;;3.82;55.39
29371;BME280;16357;52.188;7.838;2023-01-29T02:55:00;102192.25;;;3.82;55.21
29371;BME280;16357;52.188;7.838;2023-01-29T02:57:34;102198.50;;;3.81;55.36
29371;BME280;16357;52.188;7.838;2023-01-29T03:00:13;102206.44;;;3.81;55.23
29371;BME280;16357;52.188;7.838;2023-01-29T03:03:05;102200.28;;;3.81;55.28
29371;BME280;16357;52.188;7.838;2023-01-29T03:05:42;102194.97;;;3.81;55.48
29371;BME280;16357;52.188;7.838;2023-01-29T03:08:14;102192.31;;;3.81;55.27
29371;BME280;16357;52.188;7.838;2023-01-29T03:10:51;102198.50;;;3.81;55.35
29371;BME280;16357;52.188;7.838;2023-01-29T03:13:32;102188.72;;;3.82;55.57
29371;BME280;16357;52.188;7.838;2023-01-29T03:16:09;102176.41;;;3.81;55.21
29371;BME280;16357;52.188;7.838;2023-01-29T03:18:42;102183.50;;;3.80;55.26
29371;BME280;16357;52.188;7.838;2023-01-29T03:21:37;102176.41;;;3.81;55.41
29371;BME280;16357;52.188;7.838;2023-01-29T03:24:28;102175.47;;;3.82;55.56
29371;BME280;16357;52.188;7.838;2023-01-29T03:27:18;102169.28;;;3.81;55.36
29371;BME280;16357;52.188;7.838;2023-01-29T03:30:05;102160.56;;;3.79;55.42
29371;BME280;16357;52.188;7.838;2023-01-29T03:32:54;102159.63;;;3.80;55.16
29371;BME280;16357;52.188;7.838;2023-01-29T03:35:24;102163.13;;;3.81;55.33
29371;BME280;16357;52.188;7.838;2023-01-29T03:38:03;102163.22;;;3.79;55.41
29371;BME280;16357;52.188;7.838;2023-01-29T03:40:39;102151.66;;;3.80;55.66
29371;BME280;16357;52.188;7.838;2023-01-29T03:43:29;102151.66;;;3.80;55.37
29371;BME280;16357;52.188;7.838;2023-01-29T03:46:21;102148.06;;;3.81;55.69
29371;BME280;16357;52.188;7.838;2023-01-29T03:49:14;102142.69;;;3.83;55.66
29371;BME280;16357;52.188;7.838;2023-01-29T03:54:54;102137.28;;;3.84;55.61
29371;BME280;16357;52.188;7.838;2023-01-29T04:00:18;102131.13;;;3.84;55.74
29371;BME280;16357;52.188;7.838;2023-01-29T04:02:52;102124.00;;;3.84;55.43
29371;BME280;16357;52.188;7.838;2023-01-29T04:05:24;102126.66;;;3.84;55.66
29371;BME280;16357;52.188;7.838;2023-01-29T04:07:58;102123.16;;;3.84;55.58
29371;BME280;16357;52.188;7.838;2023-01-29T04:10:28;102131.13;;;3.84;55.53
29371;BME280;16357;52.188;7.838;2023-01-29T04:13:01;102131.97;;;3.84;55.45
29371;BME280;16357;52.188;7.838;2023-01-29T04:15:33;102117.00;;;3.83;55.39
29371;BME280;16357;52.188;7.838;2023-01-29T04:18:01;102114.34;;;3.83;55.45
29371;BME280;16357;52.188;7.838;2023-01-29T04:20:27;102098.41;;;3.83;55.34
29371;BME280;16357;52.188;7.838;2023-01-29T04:22:54;102097.56;;;3.83;55.59
29371;BME280;16357;52.188;7.838;2023-01-29T04:25:22;102102.03;;;3.82;55.59
29371;BME280;16357;52.188;7.838;2023-01-29T04:28:04;102100.22;;;3.83;55.55
29371;BME280;16357;52.188;7.838;2023-01-29T04:30:41;102102.88;;;3.83;55.46
29371;BME280;16357;52.188;7.838;2023-01-29T04:38:31;102087.78;;;3.83;55.54
29371;BME280;16357;52.188;7.838;2023-01-29T04:42:20;102087.78;;;3.83;55.73
29371;BME280;16357;52.188;7.838;2023-01-29T04:44:24;102083.28;;;3.85;55.73
29371;BME280;16357;52.188;7.838;2023-01-29T04:47:04;102070.91;;;3.84;55.68
29371;BME280;16357;52.188;7.838;2023-01-29T04:49:45;102077.09;;;3.85;55.45
29371;BME280;16357;52.188;7.838;2023-01-29T04:54:42;102073.28;;;3.90;55.30
29371;BME280;16357;52.188;7.838;2023-01-29T04:57:19;102066.22;;;3.89;55.27
29371;BME280;16357;52.188;7.838;2023-01-29T04:59:55;102055.78;;;3.86;55.28
29371;BME280;16357;52.188;7.838;2023-01-29T05:02:26;102057.66;;;3.84;55.51
29371;BME280;16357;52.188;7.838;2023-01-29T05:04:55;102055.94;;;3.83;55.26
29371;BME280;16357;52.188;7.838;2023-01-29T05:07:25;102068.44;;;3.81;55.55
29371;BME280;16357;52.188;7.838;2023-01-29T05:09:53;102064.06;;;3.80;55.57
29371;BME280;16357;52.188;7.838;2023-01-29T05:12:24;102075.63;;;3.79;55.47
29371;BME280;16357;52.188;7.838;2023-01-29T05:14:55;102072.97;;;3.79;55.89
29371;BME280;16357;52.188;7.838;2023-01-29T05:17:25;102072.09;;;3.79;55.80
29371;BME280;16357;52.188;7.838;2023-01-29T05:19:52;102078.28;;;3.79;55.62
29371;BME280;16357;52.188;7.838;2023-01-29T05:22:20;102084.34;;;3.81;55.47
29371;BME280;16357;52.188;7.838;2023-01-29T05:24:49;102082.66;;;3.80;55.78
29371;BME280;16357;52.188;7.838;2023-01-29T05:27:21;102083.44;;;3.82;55.71
29371;BME280;16357;52.188;7.838;2023-01-29T05:30:08;102081.69;;;3.81;55.72
29371;BME280;16357;52.188;7.838;2023-01-29T05:32:35;102073.75;;;3.81;55.77
29371;BME280;16357;52.188;7.838;2023-01-29T05:35:02;102079.84;;;3.83;55.52
29371;BME280;16357;52.188;7.838;2023-01-29T05:37:28;102076.31;;;3.83;55.82
29371;BME280;16357;52.188;7.838;2023-01-29T05:39:54;102078.03;;;3.84;55.91
29371;BME280;16357;52.188;7.838;2023-01-29T05:42:21;102079.75;;;3.85;55.51
29371;BME280;16357;52.188;7.838;2023-01-29T05:44:47;102080.63;;;3.85;55.70
29371;BME280;16357;52.188;7.838;2023-01-29T05:47:18;102085.81;;;3.87;55.71
29371;BME280;16357;52.188;7.838;2023-01-29T05:52:19;102084.06;;;3.87;55.90
29371;BME280;16357;52.188;7.838;2023-01-29T05:54:45;102077.88;;;3.87;55.62
29371;BME280;16357;52.188;7.838;2023-01-29T05:57:13;102072.50;;;3.88;55.90
29371;BME280;16357;52.188;7.838;2023-01-29T05:59:39;102080.44;;;3.88;56.06
29371;BME280;16357;52.188;7.838;2023-01-29T06:02:06;102078.66;;;3.89;55.81
29371;BME280;16357;52.188;7.838;2023-01-29T06:04:32;102068.03;;;3.89;56.13
29371;BME280;16357;52.188;7.838;2023-01-29T06:06:59;102071.53;;;3.89;56.02
29371;BME280;16357;52.188;7.838;2023-01-29T06:09:28;102072.50;;;3.88;56.02
29371;BME280;16357;52.188;7.838;2023-01-29T06:11:54;102078.66;;;3.89;55.87
29371;BME280;16357;52.188;7.838;2023-01-29T06:14:21;102079.50;;;3.89;56.06
29371;BME280;16357;52.188;7.838;2023-01-29T06:16:47;102083.97;;;3.89;56.06
29371;BME280;16357;52.188;7.838;2023-01-29T06:19:13;102092.78;;;3.89;55.85
29371;BME280;16357;52.188;7.838;2023-01-29T06:21:40;102079.50;;;3.89;56.18
29371;BME280;16357;52.188;7.838;2023-01-29T06:24:07;102086.63;;;3.89;56.28
29371;BME280;16357;52.188;7.838;2023-01-29T06:26:33;102095.44;;;3.89;56.28
29371;BME280;16357;52.188;7.838;2023-01-29T06:29:00;102087.47;;;3.89;56.14
29371;BME280;16357;52.188;7.838;2023-01-29T06:31:26;102087.47;;;3.89;55.96
29371;BME280;16357;52.188;7.838;2023-01-29T06:34:04;102091.84;;;3.90;55.84
29371;BME280;16357;52.188;7.838;2023-01-29T06:36:31;102092.78;;;3.89;56.36
29371;BME280;16357;52.188;7.838;2023-01-29T06:38:57;102077.78;;;3.88;56.32
29371;BME280;16357;52.188;7.838;2023-01-29T06:41:23;102080.44;;;3.88;55.99
29371;BME280;16357;52.188;7.838;2023-01-29T06:43:51;102093.72;;;3.88;55.96
29371;BME280;16357;52.188;7.838;2023-01-29T06:46:17;102095.53;;;3.88;56.15
29371;BME280;16357;52.188;7.838;2023-01-29T06:48:44;102092.03;;;3.87;56.52
29371;BME280;16357;52.188;7.838;2023-01-29T06:51:10;102081.31;;;3.89;56.45
29371;BME280;16357;52.188;7.838;2023-01-29T06:53:37;102078.66;;;3.89;56.19
29371;BME280;16357;52.188;7.838;2023-01-29T06:56:05;102075.94;;;3.90;56.18
29371;BME280;16357;52.188;7.838;2023-01-29T06:58:32;102067.97;;;3.90;56.60
29371;BME280;16357;52.188;7.838;2023-01-29T07:01:16;102068.75;;;3.92;56.12
29371;BME280;16357;52.188;7.838;2023-01-29T07:04:01;102082.03;;;3.92;56.48
29371;BME280;16357;52.188;7.838;2023-01-29T07:06:28;102086.44;;;3.92;56.28
29371;BME280;16357;52.188;7.838;2023-01-29T07:08:55;102085.59;;;3.91;56.33
29371;BME280;16357;52.188;7.838;2023-01-29T07:11:21;102079.44;;;3.91;56.39
29371;BME280;16357;52.188;7.838;2023-01-29T07:13:48;102078.59;;;3.90;56.28
29371;BME280;16357;52.188;7.838;2023-01-29T07:16:14;102075.94;;;3.90;56.54
29371;BME280;16357;52.188;7.838;2023-01-29T07:18:41;102080.28;;;3.91;56.53
29371;BME280;16357;52.188;7.838;2023-01-29T07:21:07;102085.59;;;3.91;56.59
29371;BME280;16357;52.188;7.838;2023-01-29T07:23:34;102074.97;;;3.91;56.16
29371;BME280;16357;52.188;7.838;2023-01-29T07:26:04;102074.06;;;3.92;56.20
29371;BME280;16357;52.188;7.838;2023-01-29T07:28:39;102072.25;;;3.93;56.16
29371;BME280;16357;52.188;7.838;2023-01-29T07:31:06;102067.00;;;3.91;56.26
29371;BME280;16357;52.188;7.838;2023-01-29T07:33:33;102058.13;;;3.92;56.34
29371;BME280;16357;52.188;7.838;2023-01-29T07:35:59;102056.31;;;3.93;56.59
29371;BME280;16357;52.188;7.838;2023-01-29T07:38:26;102056.31;;;3.93;56.66
29371;BME280;16357;52.188;7.838;2023-01-29T07:40:52;102062.50;;;3.93;56.47
29371;BME280;16357;52.188;7.838;2023-01-29T07:43:19;102064.19;;;3.94;56.55
29371;BME280;16357;52.188;7.838;2023-01-29T07:45:46;102063.28;;;3.95;56.64
29371;BME280;16357;52.188;7.838;2023-01-29T07:48:12;102059.66;;;3.96;56.42
29371;BME280;16357;52.188;7.838;2023-01-29T07:50:39;102063.16;;;3.97;56.58
29371;BME280;16357;52.188;7.838;2023-01-29T07:53:07;102058.72;;;3.97;56.34
29371;BME280;16357;52.188;7.838;2023-01-29T07:55:37;102062.25;;;3.98;56.46
29371;BME280;16357;52.188;7.838;2023-01-29T07:58:03;102060.44;;;3.99;56.32
29371;BME280;16357;52.188;7.838;2023-01-29T08:00:30;102046.22;;;4.00;56.16
29371;BME280;16357;52.188;7.838;2023-01-29T08:03:09;102052.38;;;4.00;56.18
29371;BME280;16357;52.188;7.838;2023-01-29T08:05:37;102037.41;;;3.99;56.31
29371;BME280;16357;52.188;7.838;2023-01-29T08:08:03;102039.09;;;4.00;56.14
29371;BME280;16357;52.188;7.838;2023-01-29T08:10:36;102043.50;;;4.01;56.52
29371;BME280;16357;52.188;7.838;2023-01-29T08:13:04;102041.75;;;4.00;56.21
29371;BME280;16357;52.188;7.838;2023-01-29T08:15:31;102027.56;;;4.01;56.17
29371;BME280;16357;52.188;7.838;2023-01-29T08:18:00;102011.63;;;4.01;56.26
29371;BME280;16357;52.188;7.838;2023-01-29T08:20:27;101996.63;;;4.00;56.40
29371;BME280;16357;52.188;7.838;2023-01-29T08:23:04;101992.09;;;4.02;56.17
29371;BME280;16357;52.188;7.838;2023-01-29T08:25:31;101977.00;;;4.03;56.17
29371;BME280;16357;52.188;7.838;2023-01-29T08:27:59;101982.31;;;4.03;56.58
29371;BME280;16357;52.188;7.838;2023-01-29T08:30:29;101984.97;;;4.03;56.58
29371;BME280;16357;52.188;7.838;2023-01-29T08:32:55;101988.59;;;4.02;56.58
29371;BME280;16357;52.188;7.838;2023-01-29T08:35:22;102010.63;;;4.04;56.17
29371;BME280;16357;52.188;7.838;2023-01-29T08:37:57;102009.66;;;4.05;56.72
29371;BME280;16357;52.188;7.838;2023-01-29T08:40:25;102003.44;;;4.06;56.76
29371;BME280;16357;52.188;7.838;2023-01-29T08:42:56;102006.84;;;4.08;56.51
29371;BME280;16357;52.188;7.838;2023-01-29T08:45:26;102008.56;;;4.09;56.40
29371;BME280;16357;52.188;7.838;2023-01-29T08:47:53;101996.06;;;4.11;56.35
29371;BME280;16357;52.188;7.838;2023-01-29T08:50:19;101983.66;;;4.11;56.40
29371;BME280;16357;52.188;7.838;2023-01-29T08:52:46;101979.19;;;4.12;56.62
29371;BME280;16357;52.188;7.838;2023-01-29T08:55:12;101986.19;;;4.13;56.39
29371;BME280;16357;52.188;7.838;2023-01-29T08:57:39;101997.72;;;4.13;56.41
29371;BME280;16357;52.188;7.838;2023-01-29T09:00:08;102002.06;;;4.14;56.21
29371;BME280;16357;52.188;7.838;2023-01-29T09:02:36;101987.81;;;4.15;56.61
29371;BME280;16357;52.188;7.838;2023-01-29T09:05:02;101983.38;;;4.16;56.39
29371;BME280;16357;52.188;7.838;2023-01-29T09:07:29;101978.84;;;4.18;56.81
29371;BME280;16357;52.188;7.838;2023-01-29T09:09:55;101979.63;;;4.20;56.84
29371;BME280;16357;52.188;7.838;2023-01-29T09:12:21;101969.78;;;4.22;56.89
29371;BME280;16357;52.188;7.838;2023-01-29T09:14:48;101980.22;;;4.25;56.50
29371;BME280;16357;52.188;7.838;2023-01-29T09:17:14;101977.38;;;4.28;56.67
29371;BME280;16357;52.188;7.838;2023-01-29T09:19:40;101984.34;;;4.31;56.75
29371;BME280;16357;52.188;7.838;2023-01-29T09:22:07;101987.66;;;4.34;56.67
29371;BME280;16357;52.188;7.838;2023-01-29T09:24:36;102011.44;;;4.37;56.94
29371;BME280;16357;52.188;7.838;2023-01-29T09:27:02;102007.66;;;4.42;56.58
29371;BME280;16357;52.188;7.838;2023-01-29T09:29:30;102012.88;;;4.43;56.92
29371;BME280;16357;52.188;7.838;2023-01-29T09:31:58;102001.13;;;4.47;57.16
29371;BME280;16357;52.188;7.838;2023-01-29T09:34:25;101999.19;;;4.51;56.43
29371;BME280;16357;52.188;7.838;2023-01-29T09:36:51;102002.56;;;4.53;56.74
29371;BME280;16357;52.188;7.838;2023-01-29T09:39:17;101999.78;;;4.56;56.82
29371;BME280;16357;52.188;7.838;2023-01-29T09:44:57;102003.72;;;4.65;56.43
29371;BME280;16357;52.188;7.838;2023-01-29T09:47:28;102007.03;;;4.68;56.58
29371;BME280;16357;52.188;7.838;2023-01-29T09:50:02;101992.72;;;4.71;56.77
29371;BME280;16357;52.188;7.838;2023-01-29T09:52:34;101984.56;;;4.74;56.55
29371;BME280;16357;52.188;7.838;2023-01-29T09:55:24;101979.09;;;4.77;56.33
29371;BME280;16357;52.188;7.838;2023-01-29T09:57:59;101969.19;;;4.79;56.37
29371;BME280;16357;52.188;7.838;2023-01-29T10:03:11;101958.31;;;4.83;56.53
29371;BME280;16357;52.188;7.838;2023-01-29T10:08:51;101954.34;;;4.91;56.86
29371;BME280;16357;52.188;7.838;2023-01-29T10:12:07;101948.66;;;4.97;56.77
29371;BME280;16357;52.188;7.838;2023-01-29T10:14:45;101958.09;;;5.02;56.38
29371;BME280;16357;52.188;7.838;2023-01-29T10:17:30;101944.53;;;5.07;56.20
29371;BME280;16357;52.188;7.838;2023-01-29T10:25:44;101951.97;;;5.16;56.51
29371;BME280;16357;52.188;7.838;2023-01-29T10:28:26;101942.06;;;5.18;56.10
29371;BME280;16357;52.188;7.838;2023-01-29T10:30:59;101934.84;;;5.20;56.03
29371;BME280;16357;52.188;7.838;2023-01-29T10:33:51;101935.56;;;5.24;56.12
29371;BME280;16357;52.188;7.838;2023-01-29T10:36:33;101931.06;;;5.24;55.58
29371;BME280;16357;52.188;7.838;2023-01-29T10:39:02;101926.69;;;5.23;55.96
29371;BME280;16357;52.188;7.838;2023-01-29T10:49:55;101901.03;;;5.22;56.03
29371;BME280;16357;52.188;7.838;2023-01-29T10:52:45;101896.56;;;5.23;56.15
29371;BME280;16357;52.188;7.838;2023-01-29T10:55:31;101894.69;;;5.25;56.13
29371;BME280;16357;52.188;7.838;2023-01-29T11:00:40;101897.91;;;5.30;55.75
29371;BME280;16357;52.188;7.838;2023-01-29T11:03:31;101884.50;;;5.32;55.61
29371;BME280;16357;52.188;7.838;2023-01-29T11:06:18;101886.22;;;5.33;55.65
29371;BME280;16357;52.188;7.838;2023-01-29T11:08:53;101887.94;;;5.34;55.17
29371;BME280;16357;52.188;7.838;2023-01-29T11:11:25;101887.84;;;5.35;55.48
29371;BME280;16357;52.188;7.838;2023-01-29T11:14:01;101885.28;;;5.34;55.63
29371;BME280;16357;52.188;7.838;2023-01-29T11:16:40;101872.81;;;5.34;55.06
29371;BME280;16357;52.188;7.838;2023-01-29T11:19:07;101871.13;;;5.33;55.12
29371;BME280;16357;52.188;7.838;2023-01-29T11:21:57;101865.81;;;5.33;55.55
29371;BME280;16357;52.188;7.838;2023-01-29T11:24:24;101857.75;;;5.35;55.46
29371;BME280;16357;52.188;7.838;2023-01-29T11:26:54;101854.13;;;5.36;55.46
29371;BME280;16357;52.188;7.838;2023-01-29T11:32:06;101855.81;;;5.37;55.11
29371;BME280;16357;52.188;7.838;2023-01-29T11:34:33;101847.81;;;5.37;55.13
29371;BME280;16357;52.188;7.838;2023-01-29T11:37:04;101848.72;;;5.37;55.48
29371;BME280;16357;52.188;7.838;2023-01-29T11:39:44;101842.44;;;5.38;55.26
29371;BME280;16357;52.188;7.838;2023-01-29T11:42:20;101837.03;;;5.40;55.33
29371;BME280;16357;52.188;7.838;2023-01-29T11:44:48;101829.03;;;5.40;55.30
29371;BME280;16357;52.188;7.838;2023-01-29T11:50:00;101818.41;;;5.40;54.93
29371;BME280;16357;52.188;7.838;2023-01-29T11:52:37;101811.16;;;5.42;54.80
29371;BME280;16357;52.188;7.838;2023-01-29T11:55:13;101812.00;;;5.42;54.69
29371;BME280;16357;52.188;7.838;2023-01-29T11:57:45;101809.44;;;5.41;54.97
29371;BME280;16357;52.188;7.838;2023-01-29T12:00:21;101807.75;;;5.40;54.51
29371;BME280;16357;52.188;7.838;2023-01-29T12:05:24;101800.63;;;5.40;54.75
29371;BME280;16357;52.188;7.838;2023-01-29T12:07:59;101793.56;;;5.39;54.78
29371;BME280;16357;52.188;7.838;2023-01-29T12:10:35;101790.06;;;5.39;54.79
29371;BME280;16357;52.188;7.838;2023-01-29T12:13:14;101791.88;;;5.38;54.89
29371;BME280;16357;52.188;7.838;2023-01-29T12:15:46;101783.97;;;5.37;54.57
29371;BME280;16357;52.188;7.838;2023-01-29T12:18:31;101780.38;;;5.38;54.79
29371;BME280;16357;52.188;7.838;2023-01-29T12:21:03;101781.31;;;5.37;54.38
29371;BME280;16357;52.188;7.838;2023-01-29T12:24:11;101780.47;;;5.36;54.83
29371;BME280;16357;52.188;7.838;2023-01-29T12:26:46;101765.34;;;5.37;54.91
29371;BME280;16357;52.188;7.838;2023-01-29T12:34:49;101752.91;;;5.37;54.78
29371;BME280;16357;52.188;7.838;2023-01-29T12:37:37;101747.59;;;5.37;54.62
29371;BME280;16357;52.188;7.838;2023-01-29T12:40:12;101742.28;;;5.37;54.30
29371;BME280;16357;52.188;7.838;2023-01-29T12:42:41;101738.72;;;5.37;54.65
29371;BME280;16357;52.188;7.838;2023-01-29T12:45:16;101737.03;;;5.36;54.27
29371;BME280;16357;52.188;7.838;2023-01-29T12:47:50;101731.72;;;5.36;54.65
29371;BME280;16357;52.188;7.838;2023-01-29T12:50:24;101728.22;;;5.35;54.55
29371;BME280;16357;52.188;7.838;2023-01-29T12:52:55;101729.91;;;5.36;54.33
29371;BME280;16357;52.188;7.838;2023-01-29T12:55:27;101730.75;;;5.37;54.41
29371;BME280;16357;52.188;7.838;2023-01-29T12:58:09;101727.16;;;5.38;54.48
29371;BME280;16357;52.188;7.838;2023-01-29T13:00:42;101717.38;;;5.38;54.60
29371;BME280;16357;52.188;7.838;2023-01-29T13:08:25;101698.66;;;5.40;54.55
29371;BME280;16357;52.188;7.838;2023-01-29T13:10:55;101691.53;;;5.40;54.43
29371;BME280;16357;52.188;7.838;2023-01-29T13:13:33;101689.69;;;5.41;54.16
29371;BME280;16357;52.188;7.838;2023-01-29T13:16:04;101680.75;;;5.42;54.16
29371;BME280;16357;52.188;7.838;2023-01-29T13:21:12;101678.09;;;5.42;54.14
29371;BME280;16357;52.188;7.838;2023-01-29T13:23:43;101672.78;;;5.42;54.08
29371;BME280;16357;52.188;7.838;2023-01-29T13:26:16;101672.78;;;5.42;54.48
29371;BME280;16357;52.188;7.838;2023-01-29T13:28:44;101670.13;;;5.42;53.91
29371;BME280;16357;52.188;7.838;2023-01-29T13:31:36;101662.88;;;5.44;54.16
29371;BME280;16357;52.188;7.838;2023-01-29T13:34:23;101662.97;;;5.42;54.22
29371;BME280;16357;52.188;7.838;2023-01-29T13:36:55;101667.44;;;5.42;54.11
29371;BME280;16357;52.188;7.838;2023-01-29T13:39:27;101655.97;;;5.41;54.17
29371;BME280;16357;52.188;7.838;2023-01-29T13:41:55;101659.59;;;5.40;54.13
29371;BME280;16357;52.188;7.838;2023-01-29T13:44:34;101661.28;;;5.41;54.26
29371;BME280;16357;52.188;7.838;2023-01-29T13:47:10;101650.63;;;5.41;54.19
29371;BME280;16357;52.188;7.838;2023-01-29T13:52:54;101651.47;;;5.42;54.63
29371;BME280;16357;52.188;7.838;2023-01-29T13:55:26;101646.16;;;5.42;54.54
29371;BME280;16357;52.188;7.838;2023-01-29T13:58:51;101647.13;;;5.41;54.85
29371;BME280;16357;52.188;7.838;2023-01-29T14:00:47;101651.47;;;5.42;54.43
29371;BME280;16357;52.188;7.838;2023-01-29T14:05:59;101625.84;;;5.41;54.74
29371;BME280;16357;52.188;7.838;2023-01-29T14:13:38;101631.25;;;5.39;54.46
29371;BME280;16357;52.188;7.838;2023-01-29T14:16:26;101619.88;;;5.37;55.04
29371;BME280;16357;52.188;7.838;2023-01-29T14:18:59;101631.38;;;5.38;54.94
29371;BME280;16357;52.188;7.838;2023-01-29T14:21:30;101631.47;;;5.36;54.98
29371;BME280;16357;52.188;7.838;2023-01-29T14:24:07;101625.28;;;5.36;54.77
29371;BME280;16357;52.188;7.838;2023-01-29T14:29:22;101634.13;;;5.36;55.23
29371;BME280;16357;52.188;7.838;2023-01-29T14:32:08;101636.69;;;5.38;55.25
29371;BME280;16357;52.188;7.838;2023-01-29T14:34:45;101630.41;;;5.39;54.99
29371;BME280;16357;52.188;7.838;2023-01-29T14:42:38;101612.94;;;5.35;55.13
29371;BME280;16357;52.188;7.838;2023-01-29T14:45:20;101616.75;;;5.31;54.80
29371;BME280;16357;52.188;7.838;2023-01-29T14:55:39;101612.56;;;5.26;55.22
29371;BME280;16357;52.188;7.838;2023-01-29T14:58:16;101620.69;;;5.25;55.49
29371;BME280;16357;52.188;7.838;2023-01-29T15:00:45;101620.75;;;5.23;55.57
29371;BME280;16357;52.188;7.838;2023-01-29T15:03:25;101607.59;;;5.22;55.21
29371;BME280;16357;52.188;7.838;2023-01-29T15:05:54;101605.84;;;5.21;55.78
29371;BME280;16357;52.188;7.838;2023-01-29T15:08:36;101607.66;;;5.20;55.73
29371;BME280;16357;52.188;7.838;2023-01-29T15:11:26;101607.78;;;5.19;55.96
29371;BME280;16357;52.188;7.838;2023-01-29T15:14:11;101606.91;;;5.18;55.32